Time;durP1;ratioP1;P1;durP2;ratioP2;P2;SDS_P1;SDS_P2;PMS_P1;PMS_P2;Temp;Humidity;BMP_temperature;BMP_pressure;BME280_temperature;BME280_humidity;BME280_pressure;Samples;Min_cycle;Max_cycle;Signal;HPM_P1;HPM_P2
2022/06/27 00:01:58;;;;;;;0.60;0.60;;;24.10;99.90;;;;;;4437181;32;20428;-67
2022/06/27 00:04:24;;;;;;;0.70;0.70;;;24.10;99.90;;;;;;4437227;32;20122;-67
2022/06/27 00:06:49;;;;;;;0.52;0.52;;;24.10;99.90;;;;;;4442097;32;20084;-67
2022/06/27 00:09:15;;;;;;;0.90;0.90;;;24.00;99.90;;;;;;4439644;32;20371;-68
2022/06/27 00:11:40;;;;;;;0.35;0.35;;;23.90;99.90;;;;;;4434439;32;20066;-68
2022/06/27 00:14:06;;;;;;;0.60;0.60;;;23.90;99.90;;;;;;4441404;32;20077;-68
2022/06/27 00:16:32;;;;;;;0.73;0.73;;;23.90;99.90;;;;;;4442462;32;20060;-68
2022/06/27 00:18:57;;;;;;;4.35;1.45;;;23.80;99.90;;;;;;4444201;32;20049;-68
2022/06/27 00:21:23;;;;;;;0.60;0.60;;;23.70;99.90;;;;;;4432112;32;20077;-68
2022/06/27 00:23:48;;;;;;;0.70;0.70;;;23.70;99.90;;;;;;4413408;32;20437;-68
2022/06/27 00:26:13;;;;;;;0.73;0.55;;;23.80;99.90;;;;;;4433105;32;20077;-67
2022/06/27 00:28:39;;;;;;;0.60;0.60;;;23.70;99.90;;;;;;4439087;32;20085;-67
2022/06/27 00:31:04;;;;;;;1.92;1.30;;;23.70;99.90;;;;;;4441288;32;20081;-67
2022/06/27 00:33:30;;;;;;;0.73;0.73;;;23.70;99.90;;;;;;4440351;32;20394;-68
2022/06/27 00:35:55;;;;;;;1.02;0.50;;;23.70;99.90;;;;;;4441248;32;20092;-67
2022/06/27 00:38:21;;;;;;;1.10;0.88;;;23.60;99.90;;;;;;4438807;32;20053;-67
2022/06/27 00:40:46;;;;;;;0.68;0.68;;;23.40;99.90;;;;;;4438873;32;20095;-67
2022/06/27 00:43:12;;;;;;;0.47;0.47;;;23.40;99.90;;;;;;4441029;32;20053;-67
2022/06/27 00:45:38;;;;;;;0.82;0.80;;;23.40;99.90;;;;;;4441603;32;20074;-67
2022/06/27 00:48:04;;;;;;;1.80;1.02;;;23.30;99.90;;;;;;4440672;32;20053;-67
2022/06/27 00:50:29;;;;;;;0.60;0.60;;;23.20;99.90;;;;;;4437850;32;20151;-67
2022/06/27 00:52:55;;;;;;;0.60;0.60;;;23.20;99.90;;;;;;4418275;32;20560;-67
2022/06/27 00:55:21;;;;;;;3.10;0.70;;;23.30;99.90;;;;;;4426730;32;20472;-68
2022/06/27 00:57:46;;;;;;;0.98;0.77;;;23.30;99.90;;;;;;4436532;32;20078;-67
2022/06/27 01:00:12;;;;;;;1.25;0.80;;;23.30;99.90;;;;;;4436785;32;20532;-67
2022/06/27 01:02:39;;;;;;;0.88;0.82;;;23.10;99.90;;;;;;4439370;32;20657;-67
2022/06/27 01:05:05;;;;;;;0.50;0.50;;;23.00;99.90;;;;;;4438065;32;20125;-68
2022/06/27 01:07:30;;;;;;;0.50;0.50;;;22.90;99.90;;;;;;4443098;32;20058;-67
2022/06/27 01:09:57;;;;;;;0.50;0.50;;;22.90;99.90;;;;;;4442164;32;20057;-67
2022/06/27 01:12:23;;;;;;;1.87;1.23;;;22.90;99.90;;;;;;4437765;32;20111;-68
2022/06/27 01:14:50;;;;;;;0.75;0.70;;;22.90;99.90;;;;;;4442798;32;20629;-68
2022/06/27 01:17:17;;;;;;;0.88;0.82;;;23.00;99.90;;;;;;4441123;32;20069;-68
2022/06/27 01:19:42;;;;;;;0.82;0.70;;;23.00;99.90;;;;;;4439044;32;20709;-67
2022/06/27 01:22:09;;;;;;;0.40;0.40;;;23.00;99.90;;;;;;4424799;32;20384;-67
2022/06/27 01:24:35;;;;;;;0.55;0.52;;;23.00;99.90;;;;;;4420484;32;20091;-68
2022/06/27 01:27:01;;;;;;;0.82;0.62;;;23.00;99.90;;;;;;4435364;32;20065;-67
2022/06/27 01:29:27;;;;;;;0.82;0.70;;;22.90;99.90;;;;;;4439504;32;20077;-68
2022/06/27 01:31:53;;;;;;;0.68;0.65;;;22.80;99.90;;;;;;4435110;32;82077;-67
2022/06/27 01:34:19;;;;;;;0.70;0.70;;;22.70;99.90;;;;;;4440315;32;20072;-67
2022/06/27 01:36:46;;;;;;;0.50;0.50;;;22.60;99.90;;;;;;4442060;32;20093;-68
2022/06/27 01:39:17;;;;;;;0.57;0.57;;;22.70;99.90;;;;;;4440523;32;20115;-68
2022/06/27 01:41:46;;;;;;;1.98;1.08;;;22.70;99.90;;;;;;4441283;32;20072;-68
2022/06/27 01:44:12;;;;;;;0.80;0.80;;;22.70;99.90;;;;;;4434921;32;20065;-68
2022/06/27 01:46:41;;;;;;;0.82;0.70;;;22.70;99.90;;;;;;4437547;32;20100;-68
2022/06/27 01:49:07;;;;;;;0.75;0.70;;;22.70;99.90;;;;;;4438660;32;20081;-68
2022/06/27 01:51:33;;;;;;;0.85;0.55;;;22.80;99.90;;;;;;4427807;32;20406;-68
2022/06/27 01:53:59;;;;;;;0.75;0.70;;;22.90;99.90;;;;;;4421056;32;20155;-68
2022/06/27 01:56:24;;;;;;;5.62;1.08;;;22.80;99.90;;;;;;4435956;32;20124;-68
2022/06/27 01:58:52;;;;;;;3.50;1.20;;;22.80;99.90;;;;;;4438753;32;20085;-67
2022/06/27 02:01:18;;;;;;;0.85;0.75;;;22.80;99.90;;;;;;4436552;32;21382;-68
2022/06/27 02:03:44;;;;;;;0.50;0.50;;;22.80;99.90;;;;;;4439757;32;20100;-68
2022/06/27 02:06:11;;;;;;;0.93;0.55;;;22.80;99.90;;;;;;4436665;32;20118;-68
2022/06/27 02:08:41;;;;;;;1.05;0.82;;;22.80;99.90;;;;;;4435755;32;20080;-67
2022/06/27 02:11:07;;;;;;;0.65;0.65;;;22.80;99.90;;;;;;4435247;32;20060;-67
2022/06/27 02:13:33;;;;;;;2.28;0.85;;;22.70;99.90;;;;;;4437478;32;20064;-67
2022/06/27 02:16:08;;;;;;;0.60;0.60;;;22.60;99.90;;;;;;4445820;32;20569;-67
2022/06/27 02:18:34;;;;;;;0.62;0.62;;;22.60;99.90;;;;;;4440829;32;20093;-67
2022/06/27 02:21:00;;;;;;;0.90;0.57;;;22.50;99.90;;;;;;4435454;32;20597;-68
2022/06/27 02:23:26;;;;;;;1.23;0.85;;;22.50;99.90;;;;;;4419193;32;20093;-68
2022/06/27 02:25:53;;;;;;;0.90;0.75;;;22.60;99.90;;;;;;4437226;32;20060;-68
2022/06/27 02:28:19;;;;;;;1.95;0.82;;;22.60;99.90;;;;;;4442830;32;20077;-68
2022/06/27 02:30:45;;;;;;;0.93;0.93;;;22.70;99.90;;;;;;4437310;32;20057;-68
2022/06/27 02:33:11;;;;;;;1.58;0.90;;;22.70;99.90;;;;;;4429376;32;20065;-67
2022/06/27 02:35:39;;;;;;;1.10;0.68;;;22.70;99.90;;;;;;4439386;32;20073;-67
2022/06/27 02:38:07;;;;;;;0.82;0.60;;;22.50;99.90;;;;;;4442127;32;20076;-67
2022/06/27 02:40:33;;;;;;;0.77;0.77;;;22.50;99.90;;;;;;4439167;32;20096;-68
2022/06/27 02:43:00;;;;;;;0.70;0.70;;;22.50;99.90;;;;;;4437501;32;20128;-68
2022/06/27 02:45:29;;;;;;;2.35;1.25;;;22.50;99.90;;;;;;4441175;32;20622;-67
2022/06/27 02:47:57;;;;;;;0.85;0.70;;;22.40;99.90;;;;;;4445544;32;20112;-67
2022/06/27 02:50:26;;;;;;;0.90;0.73;;;22.40;99.90;;;;;;4436943;32;20550;-68
2022/06/27 02:52:55;;;;;;;0.60;0.60;;;22.40;99.90;;;;;;4426369;32;20133;-67
2022/06/27 02:55:31;;;;;;;0.90;0.90;;;22.40;99.90;;;;;;4430425;32;20085;-68
2022/06/27 02:58:02;;;;;;;1.20;0.60;;;22.30;99.90;;;;;;4441096;32;20081;-68
2022/06/27 03:00:28;;;;;;;6.55;1.30;;;22.30;99.90;;;;;;4435572;32;20061;-67
2022/06/27 03:02:56;;;;;;;0.70;0.68;;;22.30;99.90;;;;;;4436344;32;20073;-67
2022/06/27 03:05:21;;;;;;;1.23;0.90;;;22.20;99.90;;;;;;4436824;32;20081;-67
2022/06/27 03:07:47;;;;;;;1.00;0.80;;;22.30;99.90;;;;;;4437630;32;20446;-67
2022/06/27 03:10:13;;;;;;;1.05;0.70;;;22.20;99.90;;;;;;4443366;32;20064;-67
2022/06/27 03:12:39;;;;;;;0.68;0.60;;;22.30;99.90;;;;;;4438475;32;20073;-68
2022/06/27 03:15:05;;;;;;;0.88;0.80;;;22.30;99.90;;;;;;4452464;32;20081;-68
2022/06/27 03:17:31;;;;;;;0.75;0.70;;;22.40;99.90;;;;;;4444990;32;20475;-68
2022/06/27 03:19:57;;;;;;;3.60;0.80;;;22.40;99.90;;;;;;4444253;32;20061;-68
2022/06/27 03:22:22;;;;;;;0.40;0.40;;;22.40;99.90;;;;;;4425066;32;20505;-67
2022/06/27 03:24:48;;;;;;;0.62;0.62;;;22.50;99.90;;;;;;4426177;32;20115;-68
2022/06/27 03:27:13;;;;;;;0.68;0.68;;;22.50;99.90;;;;;;4445433;32;20772;-68
2022/06/27 03:29:39;;;;;;;0.62;0.60;;;22.60;99.90;;;;;;4436376;32;20128;-68
2022/06/27 03:32:05;;;;;;;0.60;0.60;;;22.50;99.90;;;;;;4441209;32;20066;-68
2022/06/27 03:34:31;;;;;;;0.73;0.73;;;22.50;99.90;;;;;;4443049;32;20070;-68
2022/06/27 03:36:56;;;;;;;1.30;0.93;;;22.40;99.90;;;;;;4440071;32;20422;-67
2022/06/27 03:39:22;;;;;;;0.80;0.80;;;22.40;99.90;;;;;;4439064;32;20089;-68
2022/06/27 03:41:48;;;;;;;0.57;0.52;;;22.40;99.90;;;;;;4438634;32;20062;-68
2022/06/27 03:44:14;;;;;;;0.50;0.50;;;22.40;99.90;;;;;;4442224;32;20177;-68
2022/06/27 03:46:39;;;;;;;0.62;0.55;;;22.50;99.90;;;;;;4443701;32;20535;-68
2022/06/27 03:50:05;;;;;;;1.08;0.85;;;22.60;99.90;;;;;;4436746;32;20124;-68
2022/06/27 03:51:52;;;;;;;0.80;0.80;;;22.70;99.90;;;;;;4423381;32;20160;-68
2022/06/27 03:54:18;;;;;;;5.03;0.82;;;22.70;99.90;;;;;;4411672;32;20635;-68
2022/06/27 03:56:43;;;;;;;0.47;0.47;;;22.70;99.90;;;;;;4439721;32;20104;-68
2022/06/27 03:59:09;;;;;;;1.05;0.70;;;22.70;99.90;;;;;;4444979;32;21956;-67
2022/06/27 04:01:34;;;;;;;2.50;1.20;;;22.70;99.90;;;;;;4439630;32;20077;-67
2022/06/27 04:04:00;;;;;;;0.77;0.75;;;22.70;99.90;;;;;;4442016;32;20065;-68
2022/06/27 04:06:26;;;;;;;0.80;0.80;;;22.80;99.90;;;;;;4429503;32;20085;-67
2022/06/27 04:08:51;;;;;;;0.80;0.80;;;22.80;99.90;;;;;;4438083;32;20068;-68
2022/06/27 04:11:17;;;;;;;0.80;0.80;;;22.80;99.90;;;;;;4440926;32;20112;-67
2022/06/27 04:13:42;;;;;;;0.60;0.60;;;22.90;99.90;;;;;;4436786;32;20563;-68
2022/06/27 04:16:08;;;;;;;1.10;0.95;;;22.90;99.90;;;;;;4433326;32;20100;-68
2022/06/27 04:18:34;;;;;;;1.65;1.40;;;22.90;99.90;;;;;;4435089;32;20065;-68
2022/06/27 04:20:59;;;;;;;0.90;0.82;;;22.90;99.90;;;;;;4434322;32;20084;-68
2022/06/27 04:23:25;;;;;;;0.80;0.70;;;22.80;99.90;;;;;;4385237;32;20570;-67
2022/06/27 04:25:52;;;;;;;1.15;0.60;;;22.90;99.90;;;;;;4400020;32;20127;-68
2022/06/27 04:28:17;;;;;;;0.52;0.52;;;22.90;99.90;;;;;;4400991;32;20276;-68
2022/06/27 04:30:43;;;;;;;0.93;0.62;;;23.00;99.90;;;;;;4401975;32;20907;-68
2022/06/27 04:33:09;;;;;;;2.10;0.75;;;23.00;99.90;;;;;;4396117;32;20105;-67
2022/06/27 04:35:36;;;;;;;0.73;0.73;;;23.20;99.90;;;;;;4424685;32;20605;-68
2022/06/27 04:38:02;;;;;;;1.02;0.88;;;23.20;99.90;;;;;;4437522;32;20080;-68
2022/06/27 04:40:28;;;;;;;1.00;0.70;;;23.30;99.90;;;;;;4445371;32;22031;-68
2022/06/27 04:42:53;;;;;;;3.97;1.95;;;23.30;99.90;;;;;;4439702;32;20406;-68
2022/06/27 04:45:19;;;;;;;0.68;0.68;;;23.40;99.90;;;;;;4433968;32;20077;-68
2022/06/27 04:47:45;;;;;;;2.67;0.90;;;23.40;99.90;;;;;;4438440;32;20117;-68
2022/06/27 04:50:17;;;;;;;0.65;0.60;;;23.60;99.90;;;;;;4436333;32;20081;-68
2022/06/27 04:52:42;;;;;;;17.95;1.00;;;23.60;99.90;;;;;;4396265;32;21128;-68
2022/06/27 04:55:10;;;;;;;0.65;0.65;;;23.70;99.90;;;;;;4384483;32;20403;-68
2022/06/27 04:57:37;;;;;;;1.33;0.70;;;23.70;99.90;;;;;;4430537;32;20089;-68
2022/06/27 05:00:07;;;;;;;1.05;0.90;;;23.70;99.90;;;;;;4434454;32;20360;-68
2022/06/27 05:02:32;;;;;;;0.60;0.60;;;23.80;99.90;;;;;;4422523;32;20069;-69
2022/06/27 05:04:58;;;;;;;0.65;0.65;;;23.80;99.90;;;;;;4398245;32;20561;-69
2022/06/27 05:07:23;;;;;;;1.12;0.90;;;23.90;99.90;;;;;;4402120;32;20174;-69
2022/06/27 05:09:52;;;;;;;2.62;1.20;;;24.00;99.90;;;;;;4390710;32;20478;-68
2022/06/27 05:12:19;;;;;;;0.85;0.85;;;24.00;99.90;;;;;;4390409;32;20706;-68
2022/06/27 05:14:45;;;;;;;0.93;0.80;;;24.10;99.90;;;;;;4387443;32;20364;-68
2022/06/27 05:17:10;;;;;;;0.52;0.52;;;24.10;99.90;;;;;;4395850;32;20110;-68
2022/06/27 05:19:36;;;;;;;1.08;0.80;;;24.20;99.90;;;;;;4344339;32;20323;-68
2022/06/27 05:22:02;;;;;;;1.17;0.95;;;24.30;99.90;;;;;;4340011;32;20511;-69
2022/06/27 05:24:27;;;;;;;0.65;0.57;;;24.40;99.90;;;;;;4324621;32;20081;-69
2022/06/27 05:26:54;;;;;;;0.80;0.73;;;24.50;99.90;;;;;;4337696;32;20096;-68
2022/06/27 05:29:21;;;;;;;0.40;0.40;;;24.50;99.90;;;;;;4336724;32;20302;-68
2022/06/27 05:31:47;;;;;;;0.98;0.80;;;24.60;99.90;;;;;;4326379;32;20092;-69
2022/06/27 05:34:13;;;;;;;0.93;0.62;;;24.70;99.90;;;;;;4349022;32;21641;-69
2022/06/27 05:36:39;;;;;;;0.55;0.55;;;24.80;99.90;;;;;;4362713;32;20897;-68
2022/06/27 05:39:05;;;;;;;1.15;0.62;;;24.80;99.90;;;;;;4355746;32;20396;-68
2022/06/27 05:41:34;;;;;;;0.40;0.40;;;24.90;99.90;;;;;;4381932;32;20084;-68
2022/06/27 05:44:02;;;;;;;0.30;0.30;;;24.90;99.90;;;;;;4383278;32;20239;-68
2022/06/27 05:46:28;;;;;;;0.52;0.52;;;25.00;99.90;;;;;;4401412;32;20518;-68
2022/06/27 05:48:57;;;;;;;0.52;0.40;;;25.10;99.90;;;;;;4399558;32;20085;-68
2022/06/27 05:51:28;;;;;;;0.90;0.40;;;25.20;99.90;;;;;;4391524;32;20128;-69
2022/06/27 05:53:56;;;;;;;;;;;25.30;99.90;;;;;;4394280;32;20499;-67
2022/06/27 05:56:22;;;;;;;0.60;0.60;;;25.40;99.90;;;;;;4408809;32;20119;-67
2022/06/27 05:58:48;;;;;;;4.68;1.05;;;25.50;99.90;;;;;;4410412;32;20088;-67
2022/06/27 06:01:14;;;;;;;1.67;1.02;;;25.50;99.90;;;;;;4401601;32;20133;-69
2022/06/27 06:03:39;;;;;;;0.75;0.68;;;25.60;99.90;;;;;;4387171;32;20270;-68
2022/06/27 06:06:05;;;;;;;2.65;0.95;;;25.70;99.90;;;;;;4395292;32;20543;-67
2022/06/27 06:08:32;;;;;;;0.47;0.30;;;25.80;99.90;;;;;;4407952;32;20995;-69
2022/06/27 06:10:57;;;;;;;0.40;0.40;;;25.80;99.90;;;;;;4417675;32;20159;-67
2022/06/27 06:13:25;;;;;;;0.50;0.50;;;25.90;99.90;;;;;;4418630;32;20473;-67
2022/06/27 06:15:51;;;;;;;1.35;0.52;;;26.00;99.90;;;;;;4418297;32;20526;-67
2022/06/27 06:18:17;;;;;;;0.57;0.55;;;26.10;99.90;;;;;;4412655;32;20641;-67
2022/06/27 06:20:43;;;;;;;0.52;0.52;;;26.10;99.90;;;;;;4393316;32;20072;-67
2022/06/27 06:23:08;;;;;;;0.93;0.70;;;26.20;99.90;;;;;;4400334;32;20282;-67
2022/06/27 06:25:34;;;;;;;0.25;0.25;;;26.30;99.90;;;;;;4420419;32;20634;-69
2022/06/27 06:28:02;;;;;;;0.25;0.25;;;26.40;99.90;;;;;;4417275;32;20105;-67
2022/06/27 06:30:30;;;;;;;0.35;0.35;;;26.50;99.90;;;;;;4394571;32;20101;-68
2022/06/27 06:33:02;;;;;;;1.70;0.93;;;26.50;99.90;;;;;;4384244;32;20963;-68
2022/06/27 06:35:30;;;;;;;0.55;0.50;;;26.60;99.90;;;;;;4402379;32;20204;-68
2022/06/27 06:37:56;;;;;;;0.50;0.50;;;26.60;99.90;;;;;;4415082;32;20100;-68
2022/06/27 06:40:23;;;;;;;0.37;0.37;;;26.70;99.90;;;;;;4421959;32;20094;-68
2022/06/27 06:42:48;;;;;;;0.43;0.37;;;26.80;99.90;;;;;;4421906;32;20097;-68
2022/06/27 06:45:14;;;;;;;0.40;0.40;;;26.90;99.90;;;;;;4423952;32;20102;-68
2022/06/27 06:47:43;;;;;;;0.62;0.60;;;26.90;99.90;;;;;;4420498;32;21062;-67
2022/06/27 06:50:10;;;;;;;0.70;0.50;;;27.00;99.90;;;;;;4397681;32;20100;-67
2022/06/27 06:52:38;;;;;;;0.73;0.55;;;27.00;99.90;;;;;;4399760;32;20377;-67
2022/06/27 06:55:04;;;;;;;0.68;0.68;;;27.10;99.90;;;;;;4414188;32;20081;-68
2022/06/27 06:57:29;;;;;;;0.47;0.47;;;27.20;99.90;;;;;;4426407;32;20069;-68
2022/06/27 06:59:55;;;;;;;0.62;0.62;;;27.20;99.90;;;;;;4398635;32;20110;-68
2022/06/27 07:02:21;;;;;;;0.30;0.30;;;27.30;99.90;;;;;;4386168;32;20390;-68
2022/06/27 07:04:47;;;;;;;0.30;0.30;;;27.30;99.90;;;;;;4383807;32;20258;-68
2022/06/27 07:07:13;;;;;;;0.68;0.60;;;27.40;99.90;;;;;;4402201;32;20120;-68
2022/06/27 07:09:39;;;;;;;0.30;0.30;;;27.50;99.90;;;;;;4419535;32;20525;-68
2022/06/27 07:12:05;;;;;;;0.62;0.55;;;27.60;99.90;;;;;;4419324;32;20077;-68
2022/06/27 07:14:31;;;;;;;0.35;0.35;;;27.70;99.90;;;;;;4422359;32;20072;-69
2022/06/27 07:16:56;;;;;;;1.48;0.60;;;27.80;99.90;;;;;;4419231;32;20584;-68
2022/06/27 07:19:22;;;;;;;0.52;0.40;;;28.00;99.90;;;;;;4405818;32;20499;-68
2022/06/27 07:21:48;;;;;;;1.45;0.30;;;28.00;99.90;;;;;;4398862;32;20101;-68
2022/06/27 07:24:13;;;;;;;0.20;0.20;;;28.10;99.90;;;;;;4401547;32;20430;-68
2022/06/27 07:26:39;;;;;;;0.17;0.17;;;28.20;99.50;;;;;;4422802;32;20159;-68
2022/06/27 07:29:05;;;;;;;1.17;0.20;;;28.30;99.30;;;;;;4411586;32;20319;-68
2022/06/27 07:31:31;;;;;;;0.50;0.22;;;28.40;98.80;;;;;;4396175;32;20089;-68
2022/06/27 07:33:57;;;;;;;0.20;0.20;;;28.50;98.80;;;;;;4376751;32;20147;-68
2022/06/27 07:36:25;;;;;;;0.10;0.10;;;28.60;98.60;;;;;;4396154;32;20156;-68
2022/06/27 07:38:52;;;;;;;0.30;0.30;;;28.70;98.20;;;;;;4415446;32;20090;-68
2022/06/27 07:41:20;;;;;;;0.57;0.43;;;28.90;97.40;;;;;;4423187;32;20521;-68
2022/06/27 07:43:47;;;;;;;0.30;0.30;;;29.00;97.40;;;;;;4415944;32;20077;-68
2022/06/27 07:46:15;;;;;;;0.30;0.22;;;29.10;97.40;;;;;;4415533;32;20122;-68
2022/06/27 07:48:41;;;;;;;0.43;0.40;;;29.30;97.30;;;;;;4402212;32;20573;-68
2022/06/27 07:51:07;;;;;;;0.88;0.50;;;29.40;97.40;;;;;;4396475;32;20363;-68
2022/06/27 07:53:35;;;;;;;1.80;0.85;;;29.60;96.40;;;;;;4396963;32;20470;-68
2022/06/27 07:56:03;;;;;;;0.30;0.30;;;29.80;95.60;;;;;;4413980;32;21165;-68
2022/06/27 07:58:33;;;;;;;1.35;0.65;;;29.90;95.20;;;;;;4408637;32;20622;-68
2022/06/27 08:01:02;;;;;;;0.55;0.43;;;30.00;95.30;;;;;;4409720;32;20438;-68
2022/06/27 08:04:01;;;;;;;0.40;0.40;;;30.10;94.60;;;;;;4386102;32;20426;-68
2022/06/27 08:06:18;;;;;;;0.15;0.15;;;30.20;94.40;;;;;;4386214;32;20108;-68
2022/06/27 08:08:46;;;;;;;0.35;0.30;;;30.30;93.90;;;;;;4406321;32;20077;-69
2022/06/27 08:11:15;;;;;;;0.17;0.17;;;30.30;93.90;;;;;;4407974;32;20088;-69
2022/06/27 08:13:41;;;;;;;0.30;0.30;;;30.40;93.70;;;;;;4402773;32;20833;-68
2022/06/27 08:16:08;;;;;;;0.20;0.20;;;30.40;93.20;;;;;;4409563;32;20471;-68
2022/06/27 08:18:35;;;;;;;0.73;0.30;;;30.40;93.50;;;;;;4397064;32;20131;-69
2022/06/27 08:21:00;;;;;;;0.20;0.17;;;30.50;93.40;;;;;;4417033;32;20295;-68
2022/06/27 08:23:27;;;;;;;0.17;0.17;;;30.70;93.10;;;;;;4409234;32;20489;-68
2022/06/27 08:25:54;;;;;;;1.25;0.95;;;30.80;92.90;;;;;;4404205;32;20281;-68
2022/06/27 08:28:20;;;;;;;0.55;0.30;;;30.90;92.00;;;;;;4415004;32;20794;-68
2022/06/27 08:30:46;;;;;;;0.20;0.10;;;30.80;92.10;;;;;;4411531;32;20954;-68
2022/06/27 08:33:13;;;;;;;2.25;0.88;;;30.90;92.10;;;;;;4393534;32;20789;-69
2022/06/27 08:35:40;;;;;;;0.43;0.40;;;30.90;91.60;;;;;;4400528;32;20862;-68
2022/06/27 08:38:06;;;;;;;1.15;0.60;;;30.90;91.90;;;;;;4386085;32;20216;-68
2022/06/27 08:40:32;;;;;;;0.57;0.43;;;30.90;91.90;;;;;;4398623;32;20289;-68
2022/06/27 08:42:58;;;;;;;0.55;0.55;;;30.90;91.70;;;;;;4404948;32;20551;-68
2022/06/27 08:45:25;;;;;;;0.10;0.10;;;30.90;91.70;;;;;;4406565;32;20349;-69
2022/06/27 08:47:54;;;;;;;0.22;0.22;;;31.10;91.80;;;;;;4408458;32;20221;-68
2022/06/27 08:50:20;;;;;;;0.10;0.10;;;31.20;91.40;;;;;;4415122;32;20077;-68
2022/06/27 08:52:47;;;;;;;0.25;0.25;;;31.30;91.60;;;;;;4413091;32;20143;-68
2022/06/27 08:55:12;;;;;;;2.55;0.95;;;31.30;91.30;;;;;;4413381;32;20108;-68
2022/06/27 08:57:41;;;;;;;1.95;0.57;;;31.30;91.20;;;;;;4427244;32;20496;-68
2022/06/27 09:00:09;;;;;;;0.10;0.10;;;31.30;90.60;;;;;;4411938;32;21592;-68
2022/06/27 09:02:42;;;;;;;0.28;0.28;;;31.40;91.00;;;;;;4409539;32;20217;-68
2022/06/27 09:05:19;;;;;;;0.20;0.20;;;31.50;91.20;;;;;;4395542;32;20096;-68
2022/06/27 09:07:48;;;;;;;0.70;0.30;;;31.50;90.70;;;;;;4385161;32;20546;-68
2022/06/27 09:10:25;;;;;;;0.10;0.10;;;31.50;90.20;;;;;;4396799;32;20096;-68
2022/06/27 09:12:58;;;;;;;0.22;0.22;;;31.50;89.70;;;;;;4412434;32;20509;-68
2022/06/27 09:15:27;;;;;;;0.10;0.10;;;31.50;90.10;;;;;;4404064;32;20393;-69
2022/06/27 09:18:03;;;;;;;0.40;0.40;;;31.50;90.00;;;;;;4402080;32;20718;-68
2022/06/27 09:20:46;;;;;;;0.20;0.20;;;31.60;89.20;;;;;;4405294;32;20207;-69
2022/06/27 09:23:41;;;;;;;0.40;0.40;;;31.70;89.10;;;;;;4394850;32;20184;-69
2022/06/27 09:26:10;;;;;;;0.15;0.15;;;31.80;87.40;;;;;;4399166;32;21963;-68
2022/06/27 09:28:41;;;;;;;0.13;0.13;;;31.70;88.60;;;;;;4405457;32;20455;-69
2022/06/27 09:31:11;;;;;;;0.40;0.40;;;31.60;88.70;;;;;;4404688;32;20335;-69
2022/06/27 09:33:40;;;;;;;;;;;31.60;87.20;;;;;;4392435;32;20345;-69
2022/06/27 09:36:12;;;;;;;0.30;0.30;;;31.60;88.60;;;;;;4381349;32;19981;-69
2022/06/27 09:38:45;;;;;;;0.45;0.45;;;31.70;88.40;;;;;;4385250;32;20282;-69
2022/06/27 09:41:12;;;;;;;3.17;0.40;;;31.90;88.60;;;;;;4407136;32;20089;-69
2022/06/27 09:43:44;;;;;;;0.30;0.30;;;32.00;85.90;;;;;;4411494;32;20070;-69
2022/06/27 09:46:11;;;;;;;0.00;0.00;;;32.20;84.30;;;;;;4410221;32;20118;-69
2022/06/27 09:48:43;;;;;;;1.85;0.82;;;32.40;83.60;;;;;;4403233;32;21032;-68
2022/06/27 09:51:12;;;;;;;0.30;0.30;;;32.60;83.10;;;;;;4404263;32;20758;-68
2022/06/27 09:53:39;;;;;;;0.20;0.20;;;32.60;83.50;;;;;;4393404;32;20622;-69
2022/06/27 09:56:10;;;;;;;0.10;0.10;;;32.60;83.10;;;;;;4410466;32;20184;-69
2022/06/27 09:58:38;;;;;;;0.22;0.20;;;32.60;82.30;;;;;;4405228;32;20089;-69
2022/06/27 10:01:05;;;;;;;1.27;0.47;;;32.70;81.70;;;;;;4408450;32;20073;-68
2022/06/27 10:03:31;;;;;;;0.45;0.45;;;32.70;81.30;;;;;;4391068;32;20209;-68
2022/06/27 10:05:59;;;;;;;0.05;0.05;;;32.70;80.70;;;;;;4386272;32;20548;-68
2022/06/27 10:08:25;;;;;;;0.20;0.20;;;32.70;80.20;;;;;;4384108;32;20069;-69
2022/06/27 10:11:08;;;;;;;0.70;0.40;;;32.70;80.20;;;;;;4401024;32;20315;-68
2022/06/27 10:13:36;;;;;;;0.62;0.50;;;32.70;79.10;;;;;;4402019;32;20117;-68
2022/06/27 10:16:08;;;;;;;1.02;0.40;;;32.50;80.30;;;;;;4405048;32;20189;-69
2022/06/27 10:19:06;;;;;;;0.30;0.30;;;32.70;81.60;;;;;;4402185;32;20521;-68
2022/06/27 10:21:40;;;;;;;0.90;0.45;;;32.80;80.50;;;;;;4400838;32;20086;-69
2022/06/27 10:24:24;;;;;;;0.20;0.20;;;33.00;79.20;;;;;;4387334;32;20076;-68
2022/06/27 10:26:52;;;;;;;7.05;0.93;;;33.40;78.60;;;;;;4407463;32;20282;-68
2022/06/27 10:29:39;;;;;;;0.30;0.30;;;33.30;79.50;;;;;;4399200;32;20097;-68
2022/06/27 10:32:07;;;;;;;0.37;0.37;;;33.20;78.70;;;;;;4394707;32;20235;-69
2022/06/27 10:34:45;;;;;;;1.85;0.55;;;33.50;79.20;;;;;;4388521;32;20149;-68
2022/06/27 10:37:32;;;;;;;0.28;0.20;;;33.80;73.00;;;;;;4379521;32;20110;-68
2022/06/27 10:40:20;;;;;;;2.75;0.40;;;33.90;74.20;;;;;;4385193;32;20283;-68
2022/06/27 10:42:48;;;;;;;0.30;0.30;;;34.10;73.10;;;;;;4395784;32;20651;-68
2022/06/27 10:45:23;;;;;;;0.17;0.17;;;34.30;73.20;;;;;;4405621;32;20131;-69
2022/06/27 10:47:51;;;;;;;0.03;0.03;;;34.60;74.40;;;;;;4408111;32;20346;-68
2022/06/27 10:50:18;;;;;;;0.20;0.20;;;34.60;73.30;;;;;;4398909;32;20089;-69
2022/06/27 10:52:45;;;;;;;0.20;0.20;;;34.60;73.10;;;;;;4388923;32;20100;-69
2022/06/27 10:55:29;;;;;;;0.17;0.17;;;34.70;73.90;;;;;;4395219;32;20133;-68
2022/06/27 10:57:56;;;;;;;0.50;0.50;;;34.80;74.10;;;;;;4410518;32;20572;-68
2022/06/27 11:00:42;;;;;;;1.55;0.70;;;35.10;71.00;;;;;;4407117;32;20147;-69
2022/06/27 11:03:19;;;;;;;0.20;0.20;;;35.10;72.10;;;;;;4392030;32;20949;-68
2022/06/27 11:05:58;;;;;;;0.20;0.20;;;34.90;72.10;;;;;;4391096;32;20101;-68
2022/06/27 11:08:24;;;;;;;1.35;0.88;;;34.70;72.30;;;;;;4382338;32;20496;-69
2022/06/27 11:10:50;;;;;;;1.23;0.65;;;35.10;72.90;;;;;;4398555;32;20471;-69
2022/06/27 11:13:38;;;;;;;0.20;0.20;;;35.40;70.90;;;;;;4406745;32;20159;-69
2022/06/27 11:16:04;;;;;;;0.08;0.08;;;35.20;71.80;;;;;;4407671;32;20108;-68
2022/06/27 11:18:51;;;;;;;0.20;0.20;;;35.70;70.60;;;;;;4398043;32;20249;-69
2022/06/27 11:21:21;;;;;;;0.30;0.30;;;36.20;69.80;;;;;;4407221;32;20621;-68
2022/06/27 11:23:56;;;;;;;0.30;0.30;;;36.40;68.10;;;;;;4394470;32;20352;-68
2022/06/27 11:26:23;;;;;;;0.47;0.47;;;36.50;66.70;;;;;;4410901;32;20105;-68
2022/06/27 11:32:07;;;;;;;4.18;0.70;;;35.70;66.90;;;;;;4409408;32;21586;-69
2022/06/27 11:34:21;;;;;;;0.30;0.30;;;35.60;68.30;;;;;;4394049;32;20211;-68
2022/06/27 11:36:47;;;;;;;1.08;0.60;;;35.90;68.50;;;;;;4388328;32;20431;-69
2022/06/27 11:39:14;;;;;;;0.43;0.17;;;36.10;68.80;;;;;;4394107;32;20360;-69
2022/06/27 11:41:40;;;;;;;0.30;0.30;;;36.90;68.50;;;;;;4404982;32;20105;-69
2022/06/27 11:44:07;;;;;;;0.30;0.30;;;37.20;65.80;;;;;;4397573;32;20167;-69
2022/06/27 11:46:35;;;;;;;3.95;0.73;;;37.60;64.50;;;;;;4409912;32;20114;-69
2022/06/27 11:49:07;;;;;;;1.25;1.00;;;37.70;64.50;;;;;;4399259;32;20101;-69
2022/06/27 11:51:40;;;;;;;0.30;0.30;;;37.60;63.50;;;;;;4409047;32;20144;-69
2022/06/27 11:54:11;;;;;;;0.10;0.10;;;37.30;64.30;;;;;;4401313;32;20077;-68
2022/06/27 11:56:40;;;;;;;0.60;0.55;;;37.10;63.90;;;;;;4411762;32;20185;-67
2022/06/27 11:59:08;;;;;;;0.30;0.30;;;36.70;64.60;;;;;;4416282;32;20671;-68
2022/06/27 12:01:57;;;;;;;0.43;0.43;;;36.80;63.50;;;;;;4427602;32;20078;-68
2022/06/27 12:04:33;;;;;;;1.20;0.80;;;36.70;63.60;;;;;;4400244;32;20595;-68
2022/06/27 12:07:07;;;;;;;0.30;0.30;;;37.10;63.30;;;;;;4391246;32;20113;-68
2022/06/27 12:09:48;;;;;;;0.80;0.62;;;37.90;61.40;;;;;;4397795;32;20081;-68
2022/06/27 12:12:18;;;;;;;0.40;0.40;;;38.20;59.80;;;;;;4411527;32;20092;-68
2022/06/27 12:14:46;;;;;;;0.20;0.20;;;38.10;59.20;;;;;;4412315;32;20077;-68
2022/06/27 12:17:12;;;;;;;0.25;0.25;;;38.40;59.50;;;;;;4417851;32;20072;-68
2022/06/27 12:19:40;;;;;;;0.55;0.55;;;38.50;58.40;;;;;;4410561;32;20160;-68
2022/06/27 12:22:06;;;;;;;0.20;0.20;;;38.80;57.70;;;;;;4419784;32;20073;-68
2022/06/27 12:24:32;;;;;;;3.20;0.77;;;38.90;57.10;;;;;;4398867;32;20142;-68
2022/06/27 12:26:57;;;;;;;0.10;0.10;;;39.00;56.10;;;;;;4417175;32;20068;-69
2022/06/27 12:29:23;;;;;;;0.10;0.10;;;39.60;55.80;;;;;;4421079;32;20558;-68
2022/06/27 12:31:48;;;;;;;14.52;0.75;;;39.50;55.00;;;;;;4418635;32;20104;-68
2022/06/27 12:34:14;;;;;;;0.40;0.40;;;38.30;56.00;;;;;;4398240;32;20146;-68
2022/06/27 12:36:40;;;;;;;0.10;0.10;;;37.90;57.10;;;;;;4389022;32;20276;-68
2022/06/27 12:39:07;;;;;;;0.73;0.52;;;38.50;56.50;;;;;;4396644;32;20463;-68
2022/06/27 12:41:34;;;;;;;0.52;0.40;;;39.10;56.50;;;;;;4419075;32;20116;-68
2022/06/27 12:44:00;;;;;;;0.17;0.17;;;39.70;54.40;;;;;;4409238;32;20617;-68
2022/06/27 12:46:26;;;;;;;0.15;0.15;;;40.00;53.80;;;;;;4407440;32;20086;-68
2022/06/27 12:48:53;;;;;;;0.10;0.10;;;40.20;52.70;;;;;;4402252;32;20233;-68
2022/06/27 12:51:19;;;;;;;0.30;0.30;;;39.70;52.90;;;;;;4412969;32;20653;-69
2022/06/27 12:53:45;;;;;;;0.45;0.32;;;39.50;52.30;;;;;;4405854;32;20153;-69
2022/06/27 12:56:10;;;;;;;0.10;0.10;;;39.10;51.90;;;;;;4408582;32;20309;-69